• Join FlightAware (Why Join?)
  • Login
  • US Flag 
08:41AM EST


 

Airport Tracker/Info


-or-


 

Live Flight TrackerFlight Track Log ✈ PDT4147 ✈ 14-May-2013 ✈ KROA - KCLT

Flight Track Log - Related Links

Times and Time Zones

All times are in EDT time to prevent confusion due to time zone crossing. See the PDT4147 flight status page for this flight to view local times or setup timezone preferences in your user account.

Time Position Orientation Groundspeed Altitude Reporting Facility
EDT Latitude Longitude Course Direction KTS MPH feet Rate Location/Type
04:31PM 37.1444 -79.9908 195° South  Level FlightAware Approximate
04:32PM 37.0890 -80.0138 202° Southwest  Level FlightAware Approximate
04:33PM 37.0326 -80.0333 180° South  Level FlightAware Approximate
04:34PM 36.9741 -80.0333 180° South  Level FlightAware Approximate
04:35PM 36.9157 -80.0294 176° South  Level FlightAware Approximate
04:36PM 36.8573 -80.0249 176° South  Level FlightAware Approximate
04:37PM 36.7989 -80.0204 176° South  Level FlightAware Approximate
04:38PM 36.7405 -80.0167 180° South  Level FlightAware Approximate
04:39PM 36.6820 -80.0145 177° South  Level FlightAware Approximate
04:40PM 36.6235 -80.0108 177° South  Level FlightAware Approximate
04:41PM 36.5651 -80.0072 177° South  Level FlightAware Approximate
04:42PM 36.5066 -80.0035 177° South  Level FlightAware Approximate
04:43PM 36.4482 -79.9998 174° South  Level FlightAware Approximate
04:44PM 36.3900 -79.9925 174° South  Level FlightAware Approximate
04:45PM 36.3318 -79.9852 174° South  Level FlightAware Approximate
04:46PM 36.2734 -79.9808 177° South  Level FlightAware Approximate
04:47PM 36.2149 -79.9773 177° South  Level FlightAware Approximate
04:48PM 36.1565 -79.9739 177° South  Level FlightAware Approximate
04:49PM 36.0980 -79.9705 177° South  Level FlightAware Approximate
04:50PM 36.0396 -79.9670 177° South  Level FlightAware Approximate
04:51PM 35.9995 -80.0160 230° Southwest  Level FlightAware Approximate
04:51PM 35.8958 -80.4014 225° Southwest 271 312 6,600  Level Atlanta Center
04:52PM 35.9617 -80.0712 230° Southwest  Level FlightAware Approximate
04:52PM 35.7911 -80.4522 201° Southwest 246 283 6,000  Level Atlanta Center
04:53PM 35.9238 -80.1263 230° Southwest  Level FlightAware Approximate
04:53PM 35.7383 -80.5031 218° Southwest 239 275 6,000  Level Atlanta Center
04:54PM 35.8859 -80.1813 230° Southwest  Level FlightAware Approximate
04:55PM 35.8478 -80.2361 225° Southwest  Level FlightAware Approximate
04:55PM 35.6617 -80.5267 194° South 256 295 6,000  Level Atlanta Center
04:55PM 35.5953 -80.5372 187° South 251 289 6,000  Level Atlanta Center
04:56PM 35.7970 -80.2996 225° Southwest  Level FlightAware Approximate
04:57PM 35.5267 -80.5478 187° South 249 287 6,000  Level Atlanta Center
04:58PM 35.4697 -80.5936 213° Southwest 246 283 6,000  Level Atlanta Center
04:59PM 35.4211 -80.6492 223° Southwest 238 274 6,000 -300 Level Atlanta Center
05:00PM 35.3772 -80.7197 233° Southwest 240 276 5,400 -600 Descending Atlanta Center